Time;durP1;ratioP1;P1;durP2;ratioP2;P2;SDS_P1;SDS_P2;PMS_P1;PMS_P2;Temp;Humidity;BMP_temperature;BMP_pressure;BME280_temperature;BME280_humidity;BME280_pressure;Samples;Min_cycle;Max_cycle;Signal;HPM_P1;HPM_P2
2024/04/07 00:01:31;;;;;;;1.00;0.40;;;16.20;66.30;;;;;;5020209;28;20128;-70
2024/04/07 00:03:58;;;;;;;0.90;0.43;;;16.30;66.10;;;;;;5012861;28;20458;-70
2024/04/07 00:06:24;;;;;;;1.00;0.45;;;16.10;66.50;;;;;;5012358;28;20038;-70
2024/04/07 00:08:50;;;;;;;2.10;0.70;;;16.10;66.80;;;;;;5017435;28;20045;-70
2024/04/07 00:11:16;;;;;;;1.15;0.60;;;16.00;66.90;;;;;;5018362;28;20037;-70
2024/04/07 00:13:42;;;;;;;1.98;0.82;;;16.00;66.40;;;;;;5018890;28;20033;-70
2024/04/07 00:16:07;;;;;;;0.70;0.50;;;16.00;66.50;;;;;;5019324;28;20105;-69
2024/04/07 00:18:34;;;;;;;1.02;0.60;;;16.00;66.80;;;;;;5017994;28;20037;-69
2024/04/07 00:21:03;;;;;;;1.13;0.50;;;16.10;65.50;;;;;;5014058;28;20029;-69
2024/04/07 00:23:30;;;;;;;1.13;0.63;;;16.10;65.30;;;;;;5016722;28;20033;-69
2024/04/07 00:25:55;;;;;;;0.73;0.57;;;16.00;66.10;;;;;;5017267;28;20041;-69
2024/04/07 00:28:21;;;;;;;0.55;0.40;;;16.10;65.60;;;;;;5016190;28;20048;-69
2024/04/07 00:30:47;;;;;;;2.53;0.50;;;16.00;65.80;;;;;;5010570;28;20030;-70
2024/04/07 00:33:13;;;;;;;0.80;0.52;;;16.00;65.90;;;;;;5013343;28;20140;-69
2024/04/07 00:35:38;;;;;;;0.73;0.40;;;15.90;66.40;;;;;;5012263;28;20038;-69
2024/04/07 00:38:04;;;;;;;1.27;0.60;;;15.80;66.40;;;;;;5018299;28;20104;-70
2024/04/07 00:40:29;;;;;;;1.25;0.60;;;15.60;67.30;;;;;;5018273;28;20057;-71
2024/04/07 00:42:55;;;;;;;0.90;0.43;;;15.60;67.10;;;;;;5011628;28;20088;-69
2024/04/07 00:45:22;;;;;;;1.30;0.70;;;15.50;67.30;;;;;;5020959;28;20470;-70
2024/04/07 00:47:47;;;;;;;1.05;0.60;;;15.40;68.00;;;;;;5014410;28;20578;-69
2024/04/07 00:50:15;;;;;;;2.30;0.60;;;15.30;68.00;;;;;;5024243;28;20117;-69
2024/04/07 00:52:41;;;;;;;2.90;0.60;;;15.30;68.20;;;;;;5011219;28;20041;-69
2024/04/07 00:55:10;;;;;;;0.73;0.57;;;15.30;67.70;;;;;;5018062;28;20041;-69
2024/04/07 00:57:36;;;;;;;1.48;0.60;;;15.20;67.70;;;;;;5009150;28;20030;-70
2024/04/07 01:00:03;;;;;;;0.88;0.50;;;15.30;67.50;;;;;;5013274;28;20140;-70
2024/04/07 01:02:29;;;;;;;1.45;0.60;;;15.20;68.20;;;;;;5018253;28;20060;-71
2024/04/07 01:04:54;;;;;;;3.25;0.70;;;15.30;67.30;;;;;;5019944;28;20037;-70
2024/04/07 01:07:21;;;;;;;0.77;0.50;;;15.10;68.30;;;;;;5012283;28;20044;-70
2024/04/07 01:09:46;;;;;;;0.77;0.40;;;15.10;68.30;;;;;;5018730;28;20141;-70
2024/04/07 01:12:15;;;;;;;2.30;0.63;;;15.00;68.70;;;;;;5013613;28;20033;-71
2024/04/07 01:14:41;;;;;;;1.27;0.60;;;15.20;68.00;;;;;;5020924;28;20041;-70
2024/04/07 01:17:06;;;;;;;1.25;0.70;;;15.10;68.30;;;;;;5022913;28;20074;-70
2024/04/07 01:19:33;;;;;;;2.05;0.70;;;15.10;68.00;;;;;;5017377;28;20540;-71
2024/04/07 01:21:58;;;;;;;0.90;0.60;;;15.10;68.10;;;;;;5020280;28;20088;-71
2024/04/07 01:24:24;;;;;;;0.60;0.47;;;15.10;67.90;;;;;;5020744;28;20033;-70
2024/04/07 01:26:49;;;;;;;1.65;0.45;;;15.10;67.70;;;;;;5014293;28;20393;-70
2024/04/07 01:29:15;;;;;;;1.05;0.60;;;15.10;67.80;;;;;;5015289;28;20056;-70
2024/04/07 01:31:41;;;;;;;1.20;0.50;;;15.20;67.80;;;;;;5009371;28;20439;-71
2024/04/07 01:34:06;;;;;;;0.43;0.43;;;15.10;67.90;;;;;;5017540;28;20046;-70
2024/04/07 01:36:32;;;;;;;1.15;0.60;;;15.20;67.50;;;;;;5014933;28;20203;-70
2024/04/07 01:38:58;;;;;;;0.65;0.52;;;15.10;67.70;;;;;;5013898;28;20103;-70
2024/04/07 01:41:23;;;;;;;2.17;0.50;;;15.40;66.50;;;;;;5009352;28;20443;-71
2024/04/07 01:43:48;;;;;;;1.33;0.50;;;15.30;67.40;;;;;;5008949;28;20042;-70
2024/04/07 01:46:14;;;;;;;0.45;0.40;;;15.50;66.40;;;;;;5012304;28;20029;-70
2024/04/07 01:48:40;;;;;;;0.47;0.35;;;15.40;67.00;;;;;;5008821;28;20025;-70
2024/04/07 01:51:07;;;;;;;0.82;0.43;;;15.40;66.70;;;;;;5012879;28;20037;-70
2024/04/07 01:53:32;;;;;;;1.35;0.40;;;15.40;66.90;;;;;;5011859;28;20030;-71
2024/04/07 01:55:58;;;;;;;1.33;0.60;;;15.40;66.90;;;;;;5015373;28;20115;-70
2024/04/07 01:58:23;;;;;;;0.80;0.47;;;15.50;66.80;;;;;;5012894;28;20144;-70
2024/04/07 02:00:49;;;;;;;0.88;0.55;;;15.30;67.20;;;;;;5015992;28;20025;-70
2024/04/07 02:03:14;;;;;;;1.17;0.70;;;15.30;67.00;;;;;;5016087;28;20057;-69
2024/04/07 02:05:40;;;;;;;1.83;0.90;;;15.30;67.30;;;;;;5013321;28;20459;-70
2024/04/07 02:08:05;;;;;;;1.95;0.65;;;15.30;67.50;;;;;;5016130;28;20037;-70
2024/04/07 02:10:32;;;;;;;1.48;0.57;;;15.30;67.50;;;;;;5006399;28;20112;-72
2024/04/07 02:12:57;;;;;;;0.90;0.50;;;15.30;67.70;;;;;;5018213;28;20040;-70
2024/04/07 02:15:24;;;;;;;1.83;0.57;;;15.30;67.70;;;;;;5022601;28;20041;-70
2024/04/07 02:17:50;;;;;;;0.75;0.43;;;15.20;68.30;;;;;;5021209;28;20018;-70
2024/04/07 02:20:16;;;;;;;1.45;0.63;;;15.10;68.10;;;;;;5027561;28;20056;-71
2024/04/07 02:22:42;;;;;;;1.17;0.88;;;15.10;68.20;;;;;;5015243;28;20433;-70
2024/04/07 02:25:08;;;;;;;1.30;0.60;;;15.10;68.30;;;;;;5026134;28;20112;-70
2024/04/07 02:27:33;;;;;;;1.92;0.70;;;15.30;67.70;;;;;;5020414;28;20048;-70
2024/04/07 02:29:59;;;;;;;0.60;0.60;;;15.30;67.70;;;;;;5017196;28;20057;-70
2024/04/07 02:32:24;;;;;;;1.48;0.73;;;15.40;67.30;;;;;;5019677;28;20398;-70
2024/04/07 02:34:49;;;;;;;0.35;0.32;;;15.40;67.60;;;;;;5022411;28;20052;-71
2024/04/07 02:37:15;;;;;;;0.77;0.50;;;15.40;67.20;;;;;;5022468;28;20432;-71
2024/04/07 02:39:40;;;;;;;2.28;0.55;;;15.40;67.40;;;;;;5030065;28;20060;-70
2024/04/07 02:42:06;;;;;;;0.90;0.55;;;15.50;67.00;;;;;;5015759;28;20120;-70
2024/04/07 02:49:59;;;;;;;1.00;0.47;;;15.30;67.50;;;;;;5023619;28;20135;-70
2024/04/07 02:52:25;;;;;;;0.68;0.45;;;15.30;68.10;;;;;;5016325;28;20120;-70
2024/04/07 02:54:50;;;;;;;0.73;0.60;;;15.30;67.90;;;;;;5020226;28;20045;-69
2024/04/07 02:57:16;;;;;;;0.80;0.52;;;15.40;67.70;;;;;;5017703;28;20061;-70
2024/04/07 02:59:41;;;;;;;1.90;0.52;;;15.30;67.90;;;;;;5024591;28;20025;-69
2024/04/07 03:02:07;;;;;;;0.60;0.50;;;15.30;68.00;;;;;;5024853;28;20045;-69
2024/04/07 03:04:32;;;;;;;0.65;0.50;;;15.30;68.00;;;;;;5019768;28;20405;-69
2024/04/07 03:07:00;;;;;;;1.05;0.40;;;15.10;68.20;;;;;;5018571;28;20127;-69
2024/04/07 03:09:27;;;;;;;1.25;0.50;;;15.00;69.30;;;;;;5023170;28;20025;-69
2024/04/07 03:11:52;;;;;;;1.15;0.57;;;14.90;69.60;;;;;;5019982;28;20021;-69
2024/04/07 03:14:19;;;;;;;1.33;0.63;;;14.80;69.60;;;;;;5025015;28;20366;-69
2024/04/07 03:16:45;;;;;;;0.82;0.60;;;14.70;69.90;;;;;;5024227;28;20171;-70
2024/04/07 03:19:11;;;;;;;0.82;0.50;;;14.70;70.10;;;;;;5020977;28;20038;-69
2024/04/07 03:21:37;;;;;;;1.67;0.50;;;14.70;69.60;;;;;;5028742;28;20124;-71
2024/04/07 03:24:02;;;;;;;1.60;0.70;;;14.70;70.00;;;;;;5022940;28;20084;-69
2024/04/07 03:26:28;;;;;;;1.25;0.55;;;14.70;70.20;;;;;;5017737;28;20200;-70
2024/04/07 03:28:53;;;;;;;0.90;0.60;;;14.80;70.20;;;;;;5015003;28;20034;-70
2024/04/07 03:31:19;;;;;;;1.30;0.73;;;14.70;70.10;;;;;;5013803;28;20515;-69
2024/04/07 03:33:47;;;;;;;1.17;0.60;;;14.70;70.20;;;;;;5021067;28;20049;-69
2024/04/07 03:36:13;;;;;;;1.58;0.95;;;14.70;70.20;;;;;;5019095;28;20046;-69
2024/04/07 03:38:38;;;;;;;1.27;0.70;;;14.90;69.70;;;;;;5010043;28;20474;-69
2024/04/07 03:41:04;;;;;;;0.80;0.47;;;14.90;69.50;;;;;;5011574;28;20125;-69
2024/04/07 03:43:30;;;;;;;1.33;0.60;;;15.10;68.90;;;;;;5013334;28;20099;-69
2024/04/07 03:46:02;;;;;;;0.55;0.30;;;15.20;68.30;;;;;;5011260;28;20228;-69
2024/04/07 03:48:28;;;;;;;0.43;0.40;;;15.20;68.30;;;;;;5021908;28;20101;-70
2024/04/07 03:50:56;;;;;;;0.82;0.65;;;15.10;69.00;;;;;;5018906;28;20045;-69
2024/04/07 03:53:22;;;;;;;2.28;0.75;;;15.10;69.00;;;;;;5017993;28;20030;-70
2024/04/07 03:55:47;;;;;;;2.22;0.77;;;15.10;68.90;;;;;;5009965;28;20038;-70
2024/04/07 03:58:13;;;;;;;2.15;0.40;;;15.30;68.10;;;;;;5014452;28;20034;-70
2024/04/07 04:00:38;;;;;;;0.40;0.40;;;15.30;68.30;;;;;;5015182;28;20041;-69
2024/04/07 04:03:04;;;;;;;0.70;0.47;;;15.40;67.80;;;;;;5012310;28;20050;-70
2024/04/07 04:05:30;;;;;;;0.55;0.40;;;15.40;67.90;;;;;;5034228;28;20030;-70
2024/04/07 04:07:55;;;;;;;0.73;0.57;;;15.50;67.40;;;;;;5014965;28;20033;-69
2024/04/07 04:10:21;;;;;;;0.75;0.50;;;15.40;68.10;;;;;;5016540;28;20033;-69
2024/04/07 04:12:46;;;;;;;0.93;0.50;;;15.50;67.50;;;;;;5008438;28;20048;-69
2024/04/07 04:15:12;;;;;;;2.60;0.60;;;15.60;66.50;;;;;;5016304;28;20052;-69
2024/04/07 04:17:37;;;;;;;0.75;0.50;;;15.80;65.90;;;;;;5011177;28;20056;-69
2024/04/07 04:20:03;;;;;;;0.70;0.47;;;15.90;65.50;;;;;;5016149;28;20033;-69
2024/04/07 04:22:29;;;;;;;1.00;0.52;;;16.10;65.00;;;;;;5013302;28;20042;-69
2024/04/07 04:24:56;;;;;;;1.52;0.70;;;16.10;65.20;;;;;;5017284;28;20449;-69
2024/04/07 04:27:21;;;;;;;2.60;0.82;;;16.10;65.10;;;;;;5015965;28;20041;-69
2024/04/07 04:29:47;;;;;;;0.52;0.38;;;16.10;65.10;;;;;;5021274;28;20037;-67
2024/04/07 04:32:12;;;;;;;0.50;0.40;;;16.10;65.40;;;;;;5016959;28;20608;-68
2024/04/07 04:34:38;;;;;;;1.40;0.65;;;16.10;65.30;;;;;;5018640;28;20351;-67
2024/04/07 04:37:04;;;;;;;1.30;0.57;;;16.10;65.20;;;;;;5013718;28;20361;-67
2024/04/07 04:39:29;;;;;;;0.80;0.50;;;16.00;65.70;;;;;;5017271;28;20041;-68
2024/04/07 04:41:55;;;;;;;1.60;0.70;;;16.00;66.30;;;;;;5010072;28;20034;-69
2024/04/07 04:44:21;;;;;;;0.98;0.55;;;15.90;66.60;;;;;;5021324;28;20045;-68
2024/04/07 04:46:47;;;;;;;1.20;0.63;;;15.70;67.70;;;;;;5013312;28;20034;-68
2024/04/07 04:49:14;;;;;;;1.17;0.55;;;15.70;67.60;;;;;;5018948;28;20025;-70
2024/04/07 04:51:41;;;;;;;0.80;0.50;;;15.60;67.70;;;;;;5018262;28;20057;-67
2024/04/07 04:54:07;;;;;;;1.60;0.60;;;15.60;68.00;;;;;;5013914;28;20047;-68
2024/04/07 04:56:33;;;;;;;1.35;0.73;;;15.50;67.90;;;;;;5011618;28;20101;-68
2024/04/07 04:58:59;;;;;;;1.45;0.68;;;15.50;67.90;;;;;;5009197;28;20022;-70
2024/04/07 05:01:25;;;;;;;1.00;0.55;;;16.00;66.60;;;;;;5011304;28;20048;-68
2024/04/07 05:03:52;;;;;;;1.50;0.60;;;16.10;66.70;;;;;;5014945;28;20060;-69
2024/04/07 05:06:19;;;;;;;1.40;0.50;;;16.10;67.10;;;;;;5029786;28;20044;-68
2024/04/07 05:08:45;;;;;;;0.68;0.45;;;16.10;68.00;;;;;;5014354;28;20084;-70
2024/04/07 05:11:10;;;;;;;2.03;0.50;;;16.00;69.00;;;;;;5018849;28;20403;-67
2024/04/07 05:13:36;;;;;;;1.58;0.70;;;15.90;70.10;;;;;;5019979;28;20099;-70
2024/04/07 05:16:03;;;;;;;1.75;0.68;;;15.70;70.80;;;;;;5018487;28;20041;-68
2024/04/07 05:18:29;;;;;;;1.25;0.52;;;15.70;71.60;;;;;;5018116;28;20034;-69
2024/04/07 05:20:55;;;;;;;2.97;0.88;;;15.60;72.30;;;;;;5020630;28;20402;-68
2024/04/07 05:23:21;;;;;;;2.17;0.85;;;15.40;73.20;;;;;;5017379;28;20454;-70
2024/04/07 05:25:47;;;;;;;2.35;0.70;;;15.40;73.60;;;;;;5007987;28;20033;-69
2024/04/07 05:28:12;;;;;;;2.67;0.88;;;15.40;74.10;;;;;;5017919;28;20243;-68
2024/04/07 05:30:38;;;;;;;1.40;0.50;;;15.30;75.00;;;;;;5014915;28;20335;-66
2024/04/07 05:33:05;;;;;;;1.90;0.63;;;15.20;75.40;;;;;;5021982;28;20078;-67
2024/04/07 05:35:32;;;;;;;0.95;0.43;;;15.20;75.70;;;;;;5015603;28;20145;-67
2024/04/07 05:37:58;;;;;;;1.73;0.50;;;15.20;76.30;;;;;;5021116;28;20032;-67
2024/04/07 05:40:23;;;;;;;2.35;0.47;;;15.10;76.80;;;;;;5018911;28;20033;-67
2024/04/07 05:42:50;;;;;;;1.02;0.40;;;15.10;77.10;;;;;;5007637;28;20144;-67
2024/04/07 05:45:16;;;;;;;1.45;0.60;;;15.00;77.60;;;;;;5014806;28;20455;-67
2024/04/07 05:47:41;;;;;;;1.27;0.73;;;15.00;78.00;;;;;;5019052;28;20025;-69
2024/04/07 05:50:07;;;;;;;1.88;0.77;;;15.00;78.10;;;;;;5012286;28;20420;-67
2024/04/07 05:52:33;;;;;;;2.03;0.70;;;14.90;78.10;;;;;;5011514;28;20037;-68
2024/04/07 05:54:58;;;;;;;1.20;0.50;;;14.90;78.20;;;;;;5016952;28;20030;-67
2024/04/07 05:57:24;;;;;;;0.90;0.50;;;14.90;78.40;;;;;;5004466;28;20041;-68
2024/04/07 05:59:49;;;;;;;3.20;0.82;;;15.00;78.10;;;;;;5013750;28;20029;-67
2024/04/07 06:02:15;;;;;;;1.10;0.63;;;15.00;78.10;;;;;;5011132;28;20065;-68
2024/04/07 06:04:43;;;;;;;1.17;0.40;;;15.00;78.40;;;;;;5017078;28;20064;-68
2024/04/07 06:07:08;;;;;;;1.00;0.40;;;15.00;78.60;;;;;;5007395;28;20113;-68
2024/04/07 06:09:34;;;;;;;1.23;0.50;;;15.10;78.00;;;;;;5013149;28;20104;-68
2024/04/07 06:11:59;;;;;;;1.35;0.60;;;15.10;78.10;;;;;;5009597;28;20053;-67
2024/04/07 06:14:25;;;;;;;3.05;0.60;;;15.10;78.10;;;;;;5011225;28;20064;-67
2024/04/07 06:16:50;;;;;;;3.03;0.60;;;15.10;78.50;;;;;;5012068;28;20049;-66
2024/04/07 06:19:16;;;;;;;1.27;0.40;;;15.10;78.00;;;;;;5021511;28;20056;-68
2024/04/07 06:21:41;;;;;;;0.52;0.32;;;15.20;77.70;;;;;;5019975;28;20033;-68
2024/04/07 06:24:07;;;;;;;1.73;0.90;;;15.30;77.90;;;;;;5015602;28;20423;-68
2024/04/07 06:26:34;;;;;;;1.67;0.52;;;15.30;78.00;;;;;;5007524;28;20089;-71
2024/04/07 06:29:00;;;;;;;1.17;0.30;;;15.30;78.20;;;;;;5007764;28;20150;-69
2024/04/07 06:31:25;;;;;;;1.58;0.60;;;15.30;78.10;;;;;;5014940;28;20041;-68
2024/04/07 06:33:51;;;;;;;4.05;0.60;;;15.50;77.90;;;;;;5011323;28;20556;-68
2024/04/07 06:36:16;;;;;;;2.15;0.50;;;15.50;77.10;;;;;;5015595;28;20029;-68
2024/04/07 06:38:42;;;;;;;1.35;0.40;;;15.60;77.20;;;;;;5021969;28;20037;-69
2024/04/07 06:41:07;;;;;;;1.67;0.43;;;15.70;77.10;;;;;;5022636;28;20533;-69
2024/04/07 06:43:35;;;;;;;1.80;0.52;;;15.80;76.60;;;;;;5018048;28;20089;-69
2024/04/07 06:46:01;;;;;;;4.00;1.10;;;16.00;76.00;;;;;;5015483;28;20100;-69
2024/04/07 06:48:27;;;;;;;0.57;0.32;;;16.00;74.90;;;;;;5019787;28;20126;-69
2024/04/07 06:50:52;;;;;;;1.85;0.68;;;16.10;75.00;;;;;;5006661;28;20507;-69
2024/04/07 06:53:18;;;;;;;0.45;0.40;;;16.10;75.40;;;;;;5010458;28;20144;-69
2024/04/07 06:55:44;;;;;;;1.08;0.40;;;16.10;75.20;;;;;;5013910;28;20127;-68
2024/04/07 06:58:09;;;;;;;2.85;0.57;;;16.20;75.10;;;;;;5014247;28;20150;-69
2024/04/07 07:00:35;;;;;;;1.20;0.60;;;16.10;74.10;;;;;;5010587;28;20041;-70
2024/04/07 07:03:00;;;;;;;0.82;0.28;;;16.20;74.90;;;;;;5013203;28;20076;-69
2024/04/07 07:05:26;;;;;;;0.88;0.40;;;16.20;74.90;;;;;;5034775;28;20060;-70
2024/04/07 07:07:51;;;;;;;1.13;0.38;;;16.10;74.90;;;;;;5026578;28;20086;-69
2024/04/07 07:10:17;;;;;;;1.35;0.40;;;16.10;74.70;;;;;;5021315;28;20033;-69
2024/04/07 07:12:43;;;;;;;3.13;0.40;;;16.10;74.90;;;;;;5017915;28;20068;-69
2024/04/07 07:15:08;;;;;;;3.08;0.63;;;16.10;75.30;;;;;;5026399;28;20115;-68
2024/04/07 07:17:34;;;;;;;1.23;0.45;;;16.10;75.00;;;;;;5019980;28;20490;-68
2024/04/07 07:19:59;;;;;;;0.40;0.40;;;16.10;74.90;;;;;;5023650;28;20034;-69
2024/04/07 07:22:25;;;;;;;0.22;0.22;;;16.10;74.30;;;;;;5020334;28;20155;-69
2024/04/07 07:24:50;;;;;;;1.50;0.47;;;16.30;75.00;;;;;;5021180;28;20457;-69
2024/04/07 07:27:16;;;;;;;0.98;0.60;;;16.50;74.50;;;;;;5020616;28;20033;-68
2024/04/07 07:29:41;;;;;;;0.70;0.25;;;16.50;72.90;;;;;;5027648;28;20480;-69
2024/04/07 07:32:07;;;;;;;1.80;0.20;;;16.70;73.50;;;;;;5019071;28;20055;-68
2024/04/07 07:34:33;;;;;;;0.30;0.20;;;16.60;72.10;;;;;;5020066;28;20044;-68
2024/04/07 07:36:58;;;;;;;0.28;0.20;;;16.70;73.50;;;;;;5020830;28;20026;-68
2024/04/07 07:39:24;;;;;;;0.82;0.32;;;16.60;73.50;;;;;;5018837;28;20033;-68
2024/04/07 07:41:49;;;;;;;0.55;0.32;;;16.50;73.50;;;;;;5017768;28;20033;-69
2024/04/07 07:44:15;;;;;;;0.85;0.30;;;16.40;73.90;;;;;;5020002;28;20133;-68
2024/04/07 07:46:40;;;;;;;1.00;0.43;;;16.30;73.20;;;;;;5016586;28;20051;-68
2024/04/07 07:49:06;;;;;;;0.50;0.20;;;16.20;73.10;;;;;;5017919;28;20037;-68
2024/04/07 07:51:33;;;;;;;0.60;0.30;;;16.20;73.90;;;;;;5021499;28;20026;-68
2024/04/07 07:53:58;;;;;;;0.88;0.60;;;16.10;74.90;;;;;;5019454;28;20048;-69
2024/04/07 07:56:24;;;;;;;1.67;0.55;;;16.00;75.80;;;;;;5016103;28;20287;-70
2024/04/07 07:58:50;;;;;;;2.30;0.50;;;15.90;76.70;;;;;;5021579;28;20104;-69
2024/04/07 08:01:15;;;;;;;1.48;0.43;;;15.90;77.80;;;;;;5023527;28;20029;-68
2024/04/07 08:03:41;;;;;;;0.60;0.35;;;15.90;78.60;;;;;;5022157;28;20718;-68
2024/04/07 08:06:07;;;;;;;1.35;0.22;;;15.80;78.20;;;;;;5017306;28;20422;-69
2024/04/07 08:08:33;;;;;;;0.47;0.25;;;15.70;80.10;;;;;;5018384;28;20047;-69
2024/04/07 08:10:58;;;;;;;0.90;0.30;;;15.50;77.70;;;;;;5014587;28;20129;-69
2024/04/07 08:13:24;;;;;;;0.35;0.20;;;15.50;77.00;;;;;;5016817;28;20089;-69
2024/04/07 08:15:50;;;;;;;0.57;0.35;;;;;;;;;;5016723;28;20030;-69
2024/04/07 08:18:15;;;;;;;0.38;0.30;;;15.70;77.80;;;;;;5017710;28;20091;-69
2024/04/07 08:20:42;;;;;;;0.55;0.20;;;15.80;77.50;;;;;;5014798;28;20029;-69
2024/04/07 08:23:09;;;;;;;5.43;0.40;;;;;;;;;;5016867;28;20041;-69
2024/04/07 08:25:35;;;;;;;0.32;0.20;;;16.10;76.70;;;;;;5017917;28;20120;-69
2024/04/07 08:28:01;;;;;;;0.55;0.20;;;16.20;77.20;;;;;;5013223;28;20491;-68
2024/04/07 08:30:27;;;;;;;1.13;0.40;;;16.30;75.60;;;;;;5015167;28;20056;-69
2024/04/07 08:32:53;;;;;;;0.85;0.40;;;;;;;;;;5016886;28;20339;-69
2024/04/07 08:35:19;;;;;;;1.38;0.40;;;16.50;76.00;;;;;;5026235;28;20025;-69
2024/04/07 08:37:44;;;;;;;0.75;0.30;;;16.50;74.20;;;;;;5023547;28;20516;-69
2024/04/07 08:40:10;;;;;;;1.52;0.30;;;16.50;72.80;;;;;;5028620;28;20128;-69
2024/04/07 08:42:38;;;;;;;0.25;0.15;;;16.60;72.80;;;;;;5010692;28;20544;-69
2024/04/07 08:45:06;;;;;;;0.45;0.40;;;16.50;72.80;;;;;;5017173;28;20038;-70
2024/04/07 08:47:34;;;;;;;1.17;0.50;;;16.90;71.80;;;;;;5017477;28;20033;-69
2024/04/07 08:50:01;;;;;;;1.08;0.32;;;17.20;71.50;;;;;;5020981;28;20061;-68
2024/04/07 08:52:28;;;;;;;1.58;0.20;;;17.30;69.60;;;;;;5016854;28;20044;-69
2024/04/07 08:54:54;;;;;;;0.28;0.10;;;;;;;;;;5017751;28;20117;-69
2024/04/07 08:57:22;;;;;;;0.63;0.30;;;17.10;70.50;;;;;;5013818;28;20549;-69
2024/04/07 08:59:48;;;;;;;0.22;0.20;;;16.90;70.50;;;;;;5023014;28;20025;-71
2024/04/07 09:02:15;;;;;;;1.10;0.32;;;16.80;71.50;;;;;;5015815;28;20053;-69
2024/04/07 09:04:41;;;;;;;0.10;0.10;;;16.90;69.90;;;;;;5015661;28;20029;-68
2024/04/07 09:07:07;;;;;;;0.35;0.35;;;17.10;69.10;;;;;;5011944;28;20037;-68
2024/04/07 09:09:33;;;;;;;2.58;0.40;;;17.60;69.20;;;;;;5012846;28;20044;-70
2024/04/07 09:11:59;;;;;;;0.40;0.40;;;17.80;68.20;;;;;;5014502;28;20446;-68
2024/04/07 09:14:28;;;;;;;0.95;0.20;;;;;;;;;;5012503;28;20052;-68
2024/04/07 09:17:07;;;;;;;0.73;0.28;;;17.80;67.10;;;;;;5027532;28;20411;-68
2024/04/07 09:19:35;;;;;;;0.63;0.38;;;18.50;67.70;;;;;;5015712;28;20034;-69
2024/04/07 09:22:05;;;;;;;1.65;0.20;;;18.50;64.60;;;;;;5022371;28;20102;-69
2024/04/07 09:24:33;;;;;;;0.63;0.30;;;18.60;64.40;;;;;;5016233;28;20168;-71
2024/04/07 09:26:59;;;;;;;0.70;0.25;;;18.90;65.30;;;;;;5014010;28;21102;-68
2024/04/07 09:29:31;;;;;;;0.10;0.10;;;18.60;63.90;;;;;;5012621;28;20057;-70
2024/04/07 09:31:58;;;;;;;0.93;0.70;;;18.60;64.10;;;;;;5015352;28;20026;-69
2024/04/07 09:34:24;;;;;;;0.30;0.10;;;18.80;64.60;;;;;;5017039;28;20069;-69
2024/04/07 09:36:49;;;;;;;2.80;0.50;;;18.70;63.10;;;;;;5015745;28;20069;-70
2024/04/07 09:39:15;;;;;;;1.13;0.25;;;18.50;63.40;;;;;;5018304;28;20037;-69
2024/04/07 09:41:43;;;;;;;0.22;0.10;;;18.60;64.70;;;;;;5012335;28;20117;-69
2024/04/07 09:44:10;;;;;;;0.20;0.20;;;18.60;64.10;;;;;;5008835;28;20082;-69
2024/04/07 09:46:39;;;;;;;1.30;0.50;;;18.80;64.20;;;;;;5010294;28;20034;-69
2024/04/07 09:49:09;;;;;;;0.30;0.20;;;18.60;63.60;;;;;;5014948;28;20034;-69
2024/04/07 09:51:52;;;;;;;0.50;0.22;;;18.60;63.80;;;;;;5013289;28;20033;-68
2024/04/07 09:54:49;;;;;;;1.10;0.40;;;18.60;63.80;;;;;;5020262;28;20374;-69
2024/04/07 09:57:17;;;;;;;0.17;0.10;;;18.90;62.80;;;;;;5017832;28;20101;-70
2024/04/07 09:59:45;;;;;;;0.45;0.40;;;18.70;63.00;;;;;;5018148;28;20462;-69
2024/04/07 10:02:12;;;;;;;0.08;0.03;;;19.00;63.30;;;;;;5016319;28;20069;-70
2024/04/07 10:04:39;;;;;;;1.05;0.22;;;19.00;64.00;;;;;;5025905;28;20029;-69
2024/04/07 10:07:06;;;;;;;0.60;0.20;;;18.90;64.10;;;;;;5025426;28;20105;-68
2024/04/07 10:09:32;;;;;;;0.28;0.20;;;19.00;63.60;;;;;;5018060;28;20113;-69
2024/04/07 10:11:58;;;;;;;2.10;0.20;;;19.10;63.60;;;;;;5022670;28;20029;-68
2024/04/07 10:14:24;;;;;;;0.55;0.20;;;19.10;63.70;;;;;;5017167;28;20548;-69
2024/04/07 10:16:51;;;;;;;0.57;0.25;;;19.00;63.60;;;;;;5030254;28;20140;-69
2024/04/07 10:19:26;;;;;;;0.35;0.17;;;19.20;63.60;;;;;;5018473;28;20061;-69
2024/04/07 10:21:52;;;;;;;0.93;0.47;;;19.20;64.30;;;;;;5022754;28;20422;-69
2024/04/07 10:24:18;;;;;;;1.20;0.30;;;19.00;64.50;;;;;;5019757;28;20055;-69
2024/04/07 10:26:53;;;;;;;2.13;0.32;;;19.20;64.20;;;;;;5014189;28;20125;-69
2024/04/07 10:29:19;;;;;;;0.52;0.10;;;19.50;63.10;;;;;;5020877;28;20064;-69
2024/04/07 10:31:44;;;;;;;1.88;0.55;;;19.40;62.60;;;;;;5025700;28;20456;-71
2024/04/07 10:34:10;;;;;;;0.32;0.13;;;19.50;64.00;;;;;;5010627;28;20061;-69
2024/04/07 10:36:35;;;;;;;0.50;0.32;;;19.50;62.00;;;;;;5026778;28;20048;-69
2024/04/07 10:39:02;;;;;;;0.20;0.15;;;19.20;63.10;;;;;;5016203;28;20030;-70
2024/04/07 10:41:32;;;;;;;0.90;0.45;;;19.10;63.00;;;;;;5025930;28;20017;-70
2024/04/07 10:44:00;;;;;;;1.15;0.30;;;19.30;62.80;;;;;;5026295;28;20045;-70
2024/04/07 10:46:26;;;;;;;0.75;0.32;;;19.00;63.90;;;;;;5028875;28;20029;-71
2024/04/07 10:48:53;;;;;;;0.95;0.38;;;19.30;63.60;;;;;;5024909;28;20807;-70
2024/04/07 10:51:21;;;;;;;0.93;0.25;;;19.20;64.20;;;;;;5019974;28;20618;-69
2024/04/07 10:53:59;;;;;;;0.60;0.20;;;19.30;63.00;;;;;;5017374;28;20061;-70
2024/04/07 10:56:26;;;;;;;1.45;0.30;;;19.10;63.30;;;;;;5018964;28;20025;-71
2024/04/07 10:58:51;;;;;;;0.73;0.40;;;19.20;63.10;;;;;;5016264;28;20111;-70
2024/04/07 11:01:17;;;;;;;0.60;0.20;;;18.90;63.80;;;;;;5015095;28;20074;-69
2024/04/07 11:03:43;;;;;;;1.13;0.50;;;19.10;64.10;;;;;;5020862;28;20465;-70
2024/04/07 11:06:09;;;;;;;2.72;0.52;;;19.20;61.90;;;;;;5028135;28;20029;-69
2024/04/07 11:08:35;;;;;;;0.85;0.32;;;19.70;63.00;;;;;;5021005;28;20039;-70
2024/04/07 11:11:02;;;;;;;0.00;0.00;;;19.40;63.50;;;;;;5024281;28;20029;-71
2024/04/07 11:13:28;;;;;;;1.98;0.47;;;19.50;62.70;;;;;;5023682;28;20034;-70
2024/04/07 11:15:55;;;;;;;2.85;0.30;;;19.90;64.20;;;;;;5025658;28;20028;-70
2024/04/07 11:18:21;;;;;;;1.15;0.30;;;19.90;62.10;;;;;;5027223;28;20485;-71
2024/04/07 11:20:48;;;;;;;0.10;0.10;;;20.00;62.40;;;;;;5029233;28;20344;-70
2024/04/07 11:23:15;;;;;;;0.47;0.10;;;19.90;61.30;;;;;;5021233;28;20037;-70
2024/04/07 11:25:42;;;;;;;0.75;0.20;;;20.00;61.20;;;;;;5024335;28;20025;-70
2024/04/07 11:28:09;;;;;;;1.25;0.10;;;19.70;60.80;;;;;;5012682;28;20123;-70
2024/04/07 11:30:37;;;;;;;0.65;0.22;;;19.80;61.80;;;;;;5023923;28;20030;-70
2024/04/07 11:33:09;;;;;;;2.53;0.40;;;19.90;60.80;;;;;;5019790;28;20025;-70
2024/04/07 11:35:37;;;;;;;0.90;0.20;;;19.90;60.20;;;;;;5013958;28;20053;-70
2024/04/07 11:38:03;;;;;;;0.70;0.20;;;19.60;61.60;;;;;;5016936;28;20129;-71
2024/04/07 11:40:29;;;;;;;0.28;0.13;;;19.80;60.80;;;;;;5027467;28;20131;-71
2024/04/07 11:42:55;;;;;;;0.03;0.03;;;20.10;62.10;;;;;;5014421;28;20792;-70
2024/04/07 11:45:21;;;;;;;1.23;0.20;;;20.30;59.40;;;;;;5022670;28;20036;-71
2024/04/07 11:47:47;;;;;;;0.15;0.10;;;;;;;;;;5024927;28;20389;-70
2024/04/07 11:50:13;;;;;;;1.02;0.25;;;20.00;59.40;;;;;;5028681;28;20013;-70
2024/04/07 11:52:39;;;;;;;0.47;0.10;;;19.90;59.80;;;;;;5020241;28;20116;-70
2024/04/07 11:55:05;;;;;;;1.00;0.25;;;20.00;60.80;;;;;;5028654;28;20078;-71
2024/04/07 11:57:31;;;;;;;0.75;0.17;;;;;;;;;;5024427;28;20103;-71
2024/04/07 11:59:57;;;;;;;0.95;0.32;;;20.50;59.30;;;;;;5022922;28;20558;-70
2024/04/07 12:02:22;;;;;;;2.28;0.38;;;20.40;58.10;;;;;;5020040;28;20053;-70
2024/04/07 12:04:48;;;;;;;0.55;0.00;;;20.70;60.00;;;;;;5020441;28;20124;-70
2024/04/07 12:07:13;;;;;;;1.95;0.25;;;20.60;58.50;;;;;;5015476;28;20048;-70
2024/04/07 12:09:39;;;;;;;1.52;0.20;;;20.70;58.20;;;;;;5016254;28;20108;-71
2024/04/07 12:12:05;;;;;;;0.40;0.30;;;20.90;58.50;;;;;;5018143;28;20037;-70
2024/04/07 12:14:30;;;;;;;0.98;0.20;;;20.90;56.60;;;;;;5013204;28;20065;-71
2024/04/07 12:16:56;;;;;;;0.90;0.15;;;20.50;55.50;;;;;;5015927;28;20478;-71
2024/04/07 12:19:21;;;;;;;0.75;0.13;;;20.50;55.40;;;;;;5013676;28;20040;-71
2024/04/07 12:21:48;;;;;;;0.10;0.00;;;20.80;56.40;;;;;;5018255;28;20045;-71
2024/04/07 12:24:15;;;;;;;0.35;0.10;;;20.90;55.10;;;;;;5018325;28;20030;-71
2024/04/07 12:26:41;;;;;;;0.28;0.20;;;21.10;54.60;;;;;;5020273;28;20380;-70
2024/04/07 12:29:06;;;;;;;0.00;0.00;;;21.00;53.20;;;;;;5018964;28;20113;-70
2024/04/07 12:31:32;;;;;;;1.02;0.00;;;21.40;53.90;;;;;;5020700;28;20042;-70
2024/04/07 12:33:57;;;;;;;0.32;0.20;;;21.40;53.40;;;;;;5022455;28;20045;-70
2024/04/07 12:36:23;;;;;;;0.52;0.10;;;21.30;52.70;;;;;;5020661;28;20042;-71
2024/04/07 12:38:48;;;;;;;1.17;0.13;;;21.10;52.90;;;;;;5024163;28;20453;-70
2024/04/07 12:41:14;;;;;;;0.28;0.20;;;20.70;54.20;;;;;;5011099;28;20402;-70
2024/04/07 12:43:39;;;;;;;0.73;0.10;;;20.60;53.70;;;;;;5021755;28;20053;-70
2024/04/07 12:46:06;;;;;;;1.25;0.20;;;20.70;53.00;;;;;;5019736;28;20022;-70
2024/04/07 12:48:31;;;;;;;2.28;0.30;;;20.60;53.10;;;;;;5016155;28;20025;-70